Narragansett, Rhode Island
Current Conditions -  °F | °C
As of 12:53 AM on Sunday 21 Dec 2014 (Local Time) from KUUU Reporting Station
Overcast Overcast  
Wind Chill: 27°   Ceiling: 500
Heat Index: 34°   Visibility: 10mi
Dew Point: 33°   Wind: 9mph
Humidity: 96%   Direction: 20°NNE
Pressure: 30.24"   Gusts: NA
Location:  41.45°N, 71.45°W
Report Text: KUUU 210553Z AUTO 02008KT 10SM BKN005 BKN010 OVC055 01/01 A3024 RMK AO2 CIG 003V007 SLP241 60000 I6000 T00110006 10011 21006 58007
Loading
Personal Weather Stations






























Interactive Weather Map New forecast layout! Learn more

10-Day Weather Forecast

Advertisements
Track Severe Weather on mobile